Time;durP1;ratioP1;P1;durP2;ratioP2;P2;SDS_P1;SDS_P2;PMS_P1;PMS_P2;Temp;Humidity;BMP_temperature;BMP_pressure;BME280_temperature;BME280_humidity;BME280_pressure;Samples;Min_cycle;Max_cycle;Signal;HPM_P1;HPM_P2
2021/08/20 00:02:14;;;;;;;9.90;3.95;;;;;;;16.32;88.06;95567.19;5091505;28;20048;-79
2021/08/20 00:04:39;;;;;;;7.18;3.60;;;;;;;16.29;89.18;95567.78;5108146;28;20127;-79
2021/08/20 00:07:05;;;;;;;9.02;3.78;;;;;;;16.25;88.92;95561.53;5106876;28;20096;-79
2021/08/20 00:09:30;;;;;;;6.60;3.78;;;;;;;16.25;87.87;95559.66;5107626;28;20042;-79
2021/08/20 00:11:56;;;;;;;5.93;3.97;;;;;;;16.28;89.00;95563.59;5097348;28;20040;-79
2021/08/20 00:14:22;;;;;;;8.57;3.65;;;;;;;16.38;88.98;95555.34;5108973;28;20063;-79
2021/08/20 00:16:47;;;;;;;7.13;3.47;;;;;;;16.34;88.15;95559.69;5085398;28;20047;-79
2021/08/20 00:19:13;;;;;;;10.32;4.68;;;;;;;16.25;88.90;95550.91;5109571;28;20046;-79
2021/08/20 00:21:39;;;;;;;6.85;3.60;;;;;;;16.28;88.89;95560.94;5097808;28;20074;-79
2021/08/20 00:24:06;;;;;;;5.22;3.63;;;;;;;16.18;89.52;95550.56;5091361;28;20044;-79
2021/08/20 00:26:32;;;;;;;6.88;3.78;;;;;;;16.16;90.57;95558.03;5111661;28;20039;-79
2021/08/20 00:28:57;;;;;;;5.78;3.28;;;;;;;16.19;89.82;95552.13;5101082;28;20145;-77
2021/08/20 00:31:23;;;;;;;6.25;3.80;;;;;;;16.33;88.92;95555.47;5095535;28;20489;-78
2021/08/20 00:33:49;;;;;;;6.90;3.25;;;;;;;16.22;89.45;95554.16;5100901;28;20111;-78
2021/08/20 00:36:14;;;;;;;8.82;3.60;;;;;;;16.07;89.70;95555.34;5109286;28;20080;-79
2021/08/20 00:38:40;;;;;;;10.15;4.03;;;;;;;15.92;90.33;95548.53;5081567;28;20467;-79
2021/08/20 00:41:09;;;;;;;7.85;3.58;;;;;;;15.82;90.79;95559.41;5106536;28;20054;-79
2021/08/20 00:43:35;;;;;;;7.72;3.58;;;;;;;15.76;91.30;95554.16;5099283;28;20047;-79
2021/08/20 00:46:01;;;;;;;8.40;3.33;;;;;;;15.73;91.72;95556.63;5097948;28;20036;-79
2021/08/20 00:48:28;;;;;;;6.15;3.25;;;;;;;15.78;91.67;95543.25;5108192;28;20059;-79
2021/08/20 00:51:18;;;;;;;7.90;3.63;;;;;;;15.79;91.36;95549.34;5104773;28;20039;-78
2021/08/20 00:53:44;;;;;;;10.15;3.78;;;;;;;15.84;90.82;95547.38;5092460;28;20046;-78
2021/08/20 00:56:11;;;;;;;8.02;3.63;;;;;;;15.64;91.70;95548.59;5109027;28;20564;-78
2021/08/20 00:58:37;;;;;;;6.20;3.75;;;;;;;15.54;91.77;95546.97;5111143;28;20558;-77
2021/08/20 01:01:03;;;;;;;6.05;3.40;;;;;;;15.79;90.91;95539.53;5106287;28;20118;-78
2021/08/20 01:03:31;;;;;;;6.03;3.45;;;;;;;15.60;91.35;95544.97;5107199;28;20040;-77
2021/08/20 01:05:57;;;;;;;7.15;3.58;;;;;;;15.47;91.67;95537.84;5110924;28;20065;-78
2021/08/20 01:08:24;;;;;;;7.30;3.35;;;;;;;15.31;91.88;95546.13;5111097;28;20082;-78
2021/08/20 01:10:55;;;;;;;7.88;3.30;;;;;;;15.26;92.46;95538.31;5108732;28;20092;-77
2021/08/20 01:13:20;;;;;;;5.55;3.63;;;;;;;15.25;92.55;95531.44;5091871;28;20523;-79
2021/08/20 01:15:46;;;;;;;6.13;3.72;;;;;;;15.28;92.36;95538.78;5104637;28;20039;-79
2021/08/20 01:18:39;;;;;;;6.38;3.75;;;;;;;15.34;91.82;95534.16;5112130;28;20040;-79
2021/08/20 01:21:13;;;;;;;7.43;3.72;;;;;;;15.17;92.27;95540.06;5107660;28;20059;-79
2021/08/20 01:23:39;;;;;;;12.48;3.67;;;;;;;15.20;92.36;95534.19;5094517;28;20040;-79
2021/08/20 01:26:05;;;;;;;6.95;3.70;;;;;;;15.14;92.88;95540.69;5106238;28;20097;-79
2021/08/20 01:28:31;;;;;;;9.20;3.75;;;;;;;15.03;92.96;95530.28;5102711;28;20059;-79
2021/08/20 01:31:00;;;;;;;7.38;3.63;;;;;;;15.04;93.41;95526.56;5098490;27;20138;-79
2021/08/20 01:33:25;;;;;;;5.82;3.55;;;;;;;14.98;92.84;95522.44;5095831;28;20040;-79
2021/08/20 01:35:51;;;;;;;8.55;4.05;;;;;;;14.85;93.46;95520.59;5102256;28;20135;-79
2021/08/20 01:38:16;;;;;;;7.75;3.83;;;;;;;14.82;93.97;95523.84;5111412;28;20036;-79
2021/08/20 01:40:42;;;;;;;7.40;4.10;;;;;;;14.89;93.61;95524.22;5104450;28;20045;-79
2021/08/20 01:43:07;;;;;;;7.18;4.05;;;;;;;14.85;93.45;95523.25;5098964;28;20036;-79
2021/08/20 01:45:33;;;;;;;5.72;3.53;;;;;;;14.81;93.70;95516.97;5103934;28;20047;-78
2021/08/20 01:47:58;;;;;;;6.85;3.90;;;;;;;14.89;93.42;95521.59;5095056;28;20043;-78
2021/08/20 01:50:24;;;;;;;6.30;3.55;;;;;;;15.01;92.30;95524.53;5100037;28;20031;-78
2021/08/20 01:52:49;;;;;;;6.75;3.80;;;;;;;14.90;93.31;95520.50;5110776;28;20054;-78
2021/08/20 01:55:15;;;;;;;8.05;3.50;;;;;;;14.73;94.08;95519.22;5099782;28;20040;-77
2021/08/20 01:57:41;;;;;;;8.38;3.63;;;;;;;14.85;93.36;95517.94;5105966;27;20043;-77
2021/08/20 02:00:08;;;;;;;8.32;4.05;;;;;;;14.68;94.98;95519.34;5098746;28;20039;-77
2021/08/20 02:02:33;;;;;;;8.18;4.10;;;;;;;14.68;94.52;95519.34;5102493;28;20547;-78
2021/08/20 02:04:59;;;;;;;5.75;3.70;;;;;;;14.87;93.79;95515.81;5109516;28;20043;-78
2021/08/20 02:07:24;;;;;;;8.45;3.72;;;;;;;14.88;93.42;95507.56;5110788;28;20043;-77
2021/08/20 02:09:50;;;;;;;7.25;3.70;;;;;;;14.84;93.74;95516.38;5106464;28;20055;-78
2021/08/20 02:12:15;;;;;;;5.90;3.70;;;;;;;14.91;93.19;95519.41;5110982;28;20039;-78
2021/08/20 02:14:41;;;;;;;5.70;3.65;;;;;;;14.71;94.34;95512.66;5108905;28;20041;-78
2021/08/20 02:17:07;;;;;;;6.90;3.53;;;;;;;14.65;94.67;95519.94;5101394;28;20455;-77
2021/08/20 02:19:33;;;;;;;9.90;4.45;;;;;;;14.70;94.56;95516.41;5100939;28;20040;-78
2021/08/20 02:21:59;;;;;;;6.03;3.47;;;;;;;14.59;94.87;95515.78;5108917;28;20050;-78
2021/08/20 02:24:25;;;;;;;6.95;3.60;;;;;;;14.56;94.69;95516.38;5110116;28;20039;-78
2021/08/20 02:26:50;;;;;;;9.00;3.83;;;;;;;14.46;94.31;95512.03;5107783;28;20169;-76
2021/08/20 02:29:16;;;;;;;7.40;3.90;;;;;;;14.44;95.20;95510.75;5100754;28;20529;-77
2021/08/20 02:31:41;;;;;;;8.57;4.57;;;;;;;14.34;95.51;95520.47;5107560;28;20036;-77
2021/08/20 02:34:07;;;;;;;6.80;4.47;;;;;;;14.38;95.62;95521.47;5089968;28;20119;-77
2021/08/20 02:36:32;;;;;;;5.88;3.63;;;;;;;14.37;95.31;95514.59;5108317;28;20036;-79
2021/08/20 02:38:58;;;;;;;7.20;3.80;;;;;;;14.29;95.00;95517.91;5094172;28;20051;-79
2021/08/20 02:41:25;;;;;;;7.05;3.92;;;;;;;14.25;95.29;95511.66;5105121;28;20043;-79
2021/08/20 02:43:51;;;;;;;7.10;4.32;;;;;;;14.16;95.16;95521.31;5110340;28;20040;-79
2021/08/20 02:46:17;;;;;;;8.70;4.05;;;;;;;14.09;96.04;95524.34;5108983;28;20046;-79
2021/08/20 02:48:42;;;;;;;6.65;4.25;;;;;;;14.16;95.45;95521.31;5106708;28;20550;-79
2021/08/20 02:51:09;;;;;;;7.43;4.18;;;;;;;14.24;95.16;95515.38;5101407;28;20043;-79
2021/08/20 02:53:34;;;;;;;8.05;4.57;;;;;;;14.23;94.94;95518.31;5108180;28;20134;-77
2021/08/20 02:56:00;;;;;;;9.13;4.70;;;;;;;14.14;95.30;95515.56;5108241;28;20123;-77
2021/08/20 02:58:26;;;;;;;8.38;4.60;;;;;;;13.99;95.62;95520.03;5100738;28;20500;-77
2021/08/20 03:00:51;;;;;;;7.10;4.30;;;;;;;14.07;95.95;95525.72;5110219;28;20044;-78
2021/08/20 03:03:17;;;;;;;9.13;4.43;;;;;;;14.09;95.57;95518.28;5105209;28;20044;-78
2021/08/20 03:05:43;;;;;;;7.00;4.30;;;;;;;14.07;95.35;95520.44;5108223;28;20040;-78
2021/08/20 03:08:08;;;;;;;9.07;4.38;;;;;;;13.96;95.46;95523.22;5108881;28;20047;-78
2021/08/20 03:10:33;;;;;;;7.18;4.22;;;;;;;14.02;95.31;95523.94;5104421;28;20036;-78
2021/08/20 03:12:59;;;;;;;7.35;4.93;;;;;;;13.98;95.76;95513.16;5109417;28;20660;-78
2021/08/20 03:15:25;;;;;;;8.93;4.00;;;;;;;14.01;95.27;95517.88;5104425;28;20044;-77
2021/08/20 03:17:50;;;;;;;10.43;4.28;;;;;;;14.02;95.18;95519.44;5105541;28;20123;-79
2021/08/20 03:20:16;;;;;;;7.90;4.10;;;;;;;14.01;96.04;95517.88;5092426;28;20040;-77
2021/08/20 03:22:41;;;;;;;9.00;4.30;;;;;;;14.13;95.94;95516.63;5110192;28;20047;-77
2021/08/20 03:25:07;;;;;;;7.93;4.57;;;;;;;14.11;95.96;95516.13;5108554;28;20043;-78
2021/08/20 03:27:33;;;;;;;7.35;4.38;;;;;;;14.04;95.39;95514.63;5102868;28;20377;-79
2021/08/20 03:29:58;;;;;;;7.43;4.20;;;;;;;14.07;95.80;95523.09;5089250;28;20043;-80
2021/08/20 03:32:24;;;;;;;6.95;4.13;;;;;;;14.06;95.89;95518.84;5103669;28;20036;-79
2021/08/20 03:34:51;;;;;;;8.40;4.07;;;;;;;14.02;96.06;95514.16;5104188;28;20052;-78
2021/08/20 03:37:17;;;;;;;6.97;3.97;;;;;;;14.11;95.12;95526.72;5099629;28;20489;-79
2021/08/20 03:39:42;;;;;;;8.18;4.25;;;;;;;14.15;95.22;95511.81;5108519;28;20047;-79
2021/08/20 03:42:08;;;;;;;8.23;3.80;;;;;;;14.15;95.09;95517.09;5094023;28;20044;-79
2021/08/20 03:44:33;;;;;;;9.60;4.03;;;;;;;14.12;94.98;95507.09;5097991;28;20048;-79
2021/08/20 03:46:59;;;;;;;7.47;3.97;;;;;;;14.09;95.05;95518.28;5108505;28;20040;-78
2021/08/20 03:49:24;;;;;;;8.23;4.30;;;;;;;14.04;95.50;95522.56;5095726;28;20119;-78
2021/08/20 03:51:50;;;;;;;6.65;4.28;;;;;;;14.06;95.55;95518.84;5110408;28;20043;-78
2021/08/20 03:54:15;;;;;;;8.82;4.30;;;;;;;14.07;95.86;95520.44;5113649;28;20667;-78
2021/08/20 03:56:41;;;;;;;8.38;4.32;;;;;;;14.06;95.93;95526.78;5123468;27;20036;-78
2021/08/20 03:59:06;;;;;;;6.80;3.90;;;;;;;14.03;95.72;95536.88;5100862;28;20039;-78
2021/08/20 04:01:32;;;;;;;6.93;3.92;;;;;;;13.97;96.20;95532.75;5113026;28;20134;-77
2021/08/20 04:03:57;;;;;;;6.32;4.00;;;;;;;13.88;96.27;95537.13;5093014;28;20063;-77
2021/08/20 04:06:23;;;;;;;9.20;3.95;;;;;;;13.87;95.98;95532.91;5112799;28;20100;-78
2021/08/20 04:08:48;;;;;;;10.88;4.47;;;;;;;13.86;96.19;95536.63;5106624;27;20063;-77
2021/08/20 04:11:14;;;;;;;14.88;4.60;;;;;;;13.89;96.78;95536.03;5098929;28;20047;-77
2021/08/20 04:13:40;;;;;;;7.57;4.28;;;;;;;13.86;97.01;95547.22;5103494;28;20043;-79
2021/08/20 04:16:06;;;;;;;7.90;4.20;;;;;;;13.95;96.50;95545.50;5110422;28;20040;-78
2021/08/20 04:18:32;;;;;;;9.52;4.10;;;;;;;13.99;96.10;95546.47;5107870;28;20416;-78
2021/08/20 04:20:57;;;;;;;6.60;3.88;;;;;;;14.15;95.82;95543.56;5096736;28;20047;-78
2021/08/20 04:23:23;;;;;;;7.35;4.00;;;;;;;14.20;95.56;95551.44;5091718;28;20424;-78
2021/08/20 04:25:48;;;;;;;10.43;4.05;;;;;;;14.24;95.78;95547.13;5105301;28;20503;-77
2021/08/20 04:28:14;;;;;;;6.75;4.03;;;;;;;14.29;95.54;95554.97;5108274;28;20050;-77
2021/08/20 04:30:39;;;;;;;7.55;3.80;;;;;;;14.34;95.48;95554.88;5107990;28;20050;-78
2021/08/20 04:33:05;;;;;;;5.68;3.85;;;;;;;14.40;94.90;95550.28;5103869;28;20140;-78
2021/08/20 04:35:31;;;;;;;7.22;3.80;;;;;;;14.33;95.29;95558.59;5109716;28;20039;-78
2021/08/20 04:37:57;;;;;;;8.00;3.92;;;;;;;14.40;95.43;95554.81;5112249;28;20408;-79
2021/08/20 04:40:23;;;;;;;6.43;3.90;;;;;;;14.50;95.30;95555.38;5111492;28;20402;-78
2021/08/20 04:42:48;;;;;;;8.43;3.88;;;;;;;14.52;95.46;95547.16;5111543;28;20051;-78
2021/08/20 04:45:15;;;;;;;6.97;3.70;;;;;;;14.50;95.95;95549.31;5111047;28;20040;-78
2021/08/20 04:47:42;;;;;;;7.93;3.72;;;;;;;14.47;95.42;95555.22;5107848;28;20047;-78
2021/08/20 04:50:09;;;;;;;8.30;4.10;;;;;;;14.41;96.01;95551.06;5109463;28;20047;-78
2021/08/20 04:52:35;;;;;;;7.18;3.67;;;;;;;14.40;95.03;95562.75;5092525;28;20047;-78
2021/08/20 04:55:00;;;;;;;13.07;4.15;;;;;;;14.38;96.25;95557.75;5098214;28;20412;-78
2021/08/20 04:57:26;;;;;;;10.57;4.57;;;;;;;14.40;95.28;95565.41;5110923;28;20040;-78
2021/08/20 04:59:51;;;;;;;7.50;4.05;;;;;;;14.57;94.81;95565.59;5103478;28;20047;-78
2021/08/20 05:02:17;;;;;;;7.47;3.88;;;;;;;14.66;94.81;95566.50;5092279;28;20118;-78
2021/08/20 05:04:45;;;;;;;8.07;4.28;;;;;;;14.65;94.96;95572.91;5099024;28;20043;-78
2021/08/20 05:07:10;;;;;;;7.18;4.15;;;;;;;14.66;95.24;95578.97;5112108;28;20048;-80
2021/08/20 05:09:36;;;;;;;10.40;4.38;;;;;;;14.77;93.26;95579.56;5110384;28;20066;-79
2021/08/20 05:12:03;;;;;;;9.90;4.55;;;;;;;14.71;93.92;95576.22;5105139;28;20047;-80
2021/08/20 05:14:28;;;;;;;6.93;4.60;;;;;;;14.82;94.38;95582.91;5096540;28;20035;-79
2021/08/20 05:16:54;;;;;;;8.13;4.72;;;;;;;15.04;92.84;95579.56;5110829;28;20091;-79
2021/08/20 05:19:19;;;;;;;8.02;4.55;;;;;;;15.17;92.95;95583.28;5100446;28;20043;-79
2021/08/20 05:21:45;;;;;;;8.52;4.35;;;;;;;15.19;92.55;95586.41;5112099;28;20464;-79
2021/08/20 05:24:11;;;;;;;8.77;4.38;;;;;;;15.18;93.03;95594.66;5111092;28;20500;-79
2021/08/20 05:26:36;;;;;;;7.60;4.60;;;;;;;15.23;92.14;95598.00;5112004;28;20434;-78
2021/08/20 05:29:02;;;;;;;7.72;4.82;;;;;;;15.19;92.44;95596.25;5101709;27;20138;-78
2021/08/20 05:31:27;;;;;;;8.23;4.80;;;;;;;15.24;92.04;95604.09;5111818;28;20044;-77
2021/08/20 05:33:53;;;;;;;9.20;4.80;;;;;;;15.27;92.36;95613.31;5095498;28;20122;-78
2021/08/20 05:36:18;;;;;;;9.88;4.78;;;;;;;15.31;92.07;95609.78;5111401;28;20074;-78
2021/08/20 05:38:44;;;;;;;9.82;4.95;;;;;;;15.35;90.81;95600.16;5105233;28;20042;-79
2021/08/20 05:41:10;;;;;;;9.55;4.60;;;;;;;15.45;91.43;95608.97;5109998;28;20113;-78
2021/08/20 05:43:35;;;;;;;6.90;4.38;;;;;;;15.53;90.17;95605.59;5106313;28;20500;-77
2021/08/20 05:46:01;;;;;;;9.75;5.03;;;;;;;15.46;90.90;95605.22;5091990;28;20035;-78
2021/08/20 05:48:27;;;;;;;8.85;4.75;;;;;;;15.62;89.84;95611.78;5110152;28;20032;-78
2021/08/20 05:50:52;;;;;;;10.55;4.65;;;;;;;15.56;89.30;95616.41;5099097;28;20481;-79
2021/08/20 05:53:18;;;;;;;8.93;4.45;;;;;;;15.55;89.83;95608.75;5109206;28;20449;-79
2021/08/20 05:55:44;;;;;;;9.88;4.57;;;;;;;15.60;88.94;95611.28;5108653;28;20032;-80
2021/08/20 05:58:09;;;;;;;10.02;4.30;;;;;;;15.51;89.73;95613.09;5101446;28;20108;-79
2021/08/20 06:00:35;;;;;;;8.23;4.30;;;;;;;15.85;88.24;95606.56;5100321;28;20065;-80
2021/08/20 06:03:01;;;;;;;9.05;4.65;;;;;;;15.81;87.58;95605.56;5104987;28;20039;-79
2021/08/20 06:05:26;;;;;;;8.85;4.90;;;;;;;15.95;88.09;95603.66;5105479;28;20040;-79
2021/08/20 06:07:52;;;;;;;9.70;4.90;;;;;;;16.00;87.90;95602.75;5099369;28;20078;-78
2021/08/20 06:10:18;;;;;;;9.30;4.50;;;;;;;16.18;87.10;95603.66;5102027;28;20051;-79
2021/08/20 06:12:44;;;;;;;8.25;4.70;;;;;;;16.17;86.74;95602.09;5090389;28;20039;-79
2021/08/20 06:15:11;;;;;;;8.52;4.38;;;;;;;16.21;86.90;95603.81;5105234;28;20043;-78
2021/08/20 06:17:37;;;;;;;7.25;4.22;;;;;;;16.29;86.27;95602.31;5105967;28;20130;-79
2021/08/20 06:20:04;;;;;;;7.90;4.50;;;;;;;16.31;86.32;95600.16;5109526;28;20127;-78
2021/08/20 06:22:30;;;;;;;7.75;4.30;;;;;;;16.28;85.77;95598.09;5088151;28;20501;-78
2021/08/20 06:24:56;;;;;;;8.02;4.60;;;;;;;16.14;86.68;95592.09;5108986;28;20047;-80
2021/08/20 06:27:21;;;;;;;9.07;4.60;;;;;;;16.20;85.98;95596.16;5106370;28;20035;-78
2021/08/20 06:29:47;;;;;;;8.60;4.20;;;;;;;16.38;85.80;95603.16;5084321;28;20066;-79
2021/08/20 06:32:13;;;;;;;7.70;5.03;;;;;;;16.35;85.62;95598.47;5101625;28;20044;-80
2021/08/20 06:34:38;;;;;;;9.93;5.30;;;;;;;16.28;86.30;95608.72;5106353;27;20054;-79
2021/08/20 06:37:04;;;;;;;9.27;4.78;;;;;;;16.42;86.59;95614.75;5090549;28;20040;-81
2021/08/20 06:39:30;;;;;;;9.38;4.90;;;;;;;16.72;84.79;95617.72;5106440;28;20453;-79
2021/08/20 06:41:55;;;;;;;13.48;5.00;;;;;;;16.77;84.35;95614.13;5100468;27;20048;-79
2021/08/20 06:44:21;;;;;;;7.85;4.55;;;;;;;16.79;84.26;95618.06;5107376;28;20035;-78
2021/08/20 06:46:46;;;;;;;7.65;4.57;;;;;;;16.79;85.25;95623.38;5106150;28;20401;-79
2021/08/20 06:49:13;;;;;;;8.85;5.38;;;;;;;16.69;84.77;95618.31;5076060;28;20114;-78
2021/08/20 06:51:38;;;;;;;7.68;4.78;;;;;;;16.89;84.76;95627.66;5101784;28;20035;-77
2021/08/20 06:54:04;;;;;;;8.88;5.00;;;;;;;16.83;85.87;95617.44;5113674;28;20046;-79
2021/08/20 06:56:30;;;;;;;8.45;4.47;;;;;;;17.22;84.50;95623.84;5111108;28;20044;-79
2021/08/20 06:58:59;;;;;;;7.93;4.70;;;;;;;17.14;84.31;95618.22;5113888;28;20036;-81
2021/08/20 07:01:26;;;;;;;9.18;4.72;;;;;;;17.33;83.21;95619.81;5102752;28;20040;-79
2021/08/20 07:03:51;;;;;;;7.40;4.40;;;;;;;17.40;83.59;95614.06;5084941;28;20123;-78
2021/08/20 07:06:20;;;;;;;8.80;4.85;;;;;;;17.45;82.96;95612.00;5108720;28;20040;-79
2021/08/20 07:08:47;;;;;;;9.18;5.13;;;;;;;17.39;83.06;95613.25;5110781;28;20032;-78
2021/08/20 07:11:13;;;;;;;9.38;4.75;;;;;;;17.45;82.76;95619.22;5107635;28;20042;-78
2021/08/20 07:13:39;;;;;;;10.50;5.10;;;;;;;17.54;82.96;95621.88;5105858;28;20040;-79
2021/08/20 07:16:05;;;;;;;8.55;5.00;;;;;;;17.51;83.24;95617.19;5091171;28;20507;-76
2021/08/20 07:18:30;;;;;;;9.68;4.70;;;;;;;17.61;83.66;95619.53;5110512;28;20063;-77
2021/08/20 07:20:56;;;;;;;7.53;4.30;;;;;;;17.59;83.83;95627.06;5102786;28;20462;-78
2021/08/20 07:23:21;;;;;;;10.27;4.88;;;;;;;17.54;82.91;95624.53;5109877;28;20039;-78
2021/08/20 07:25:47;;;;;;;7.57;4.60;;;;;;;17.40;83.92;95630.78;5110041;28;20046;-78
2021/08/20 07:28:12;;;;;;;7.22;4.50;;;;;;;17.30;84.66;95631.09;5103551;28;20410;-80
2021/08/20 07:30:38;;;;;;;8.18;5.10;;;;;;;17.53;84.39;95633.63;5106836;28;20032;-79
2021/08/20 07:33:03;;;;;;;8.05;4.57;;;;;;;17.67;82.51;95634.28;5113926;28;20446;-77
2021/08/20 07:35:29;;;;;;;9.65;5.05;;;;;;;17.69;83.04;95626.75;5115514;28;20039;-79
2021/08/20 07:37:54;;;;;;;8.68;4.43;;;;;;;17.75;82.24;95630.06;5117334;28;20181;-79
2021/08/20 07:40:20;;;;;;;6.80;4.60;;;;;;;17.79;81.83;95631.78;5110654;28;20113;-78
2021/08/20 07:42:45;;;;;;;8.60;4.78;;;;;;;17.77;81.28;95628.66;5110801;28;20046;-79
2021/08/20 07:45:11;;;;;;;8.02;4.72;;;;;;;17.74;82.63;95623.97;5108984;28;20039;-80
2021/08/20 07:47:43;;;;;;;7.88;5.07;;;;;;;17.96;81.38;95638.25;5106015;28;20040;-79
2021/08/20 07:50:09;;;;;;;9.20;5.50;;;;;;;17.92;81.79;95629.31;5102010;28;20051;-78
2021/08/20 07:52:34;;;;;;;9.35;4.75;;;;;;;17.97;80.32;95637.13;5105298;28;20036;-78
2021/08/20 07:55:00;;;;;;;12.65;5.07;;;;;;;17.91;80.40;95633.06;5111355;28;20148;-77
2021/08/20 07:57:25;;;;;;;10.00;5.28;;;;;;;17.92;81.57;95629.31;5119364;28;20569;-77
2021/08/20 07:59:51;;;;;;;8.57;5.00;;;;;;;17.99;81.93;95629.63;5104990;28;20172;-79
2021/08/20 08:02:16;;;;;;;9.80;5.15;;;;;;;18.04;81.31;95632.13;5086950;28;20218;-77
2021/08/20 08:04:42;;;;;;;11.88;5.45;;;;;;;18.09;80.32;95629.31;5112476;28;20031;-78
2021/08/20 08:07:10;;;;;;;8.52;5.15;;;;;;;18.06;81.64;95634.47;5087480;28;20062;-79
2021/08/20 08:09:36;;;;;;;11.00;5.05;;;;;;;18.23;79.46;95639.81;5109538;28;20040;-78
2021/08/20 08:12:01;;;;;;;9.65;4.82;;;;;;;18.28;79.74;95630.88;5092383;28;20056;-79
2021/08/20 08:14:29;;;;;;;8.98;4.88;;;;;;;18.29;81.19;95632.44;5104092;28;20563;-78
2021/08/20 08:16:54;;;;;;;11.00;5.57;;;;;;;18.56;79.82;95630.50;5111804;28;20087;-79
2021/08/20 08:19:20;;;;;;;8.65;5.15;;;;;;;18.49;78.40;95637.09;5106683;28;20090;-78
2021/08/20 08:21:45;;;;;;;9.80;5.25;;;;;;;18.73;79.83;95640.31;5107843;28;20114;-81
2021/08/20 08:24:11;;;;;;;7.95;5.00;;;;;;;18.77;77.22;95634.03;5106173;28;20388;-80
2021/08/20 08:26:36;;;;;;;8.57;5.28;;;;;;;18.80;77.83;95641.38;5110289;28;20495;-81
2021/08/20 08:29:02;;;;;;;10.45;5.32;;;;;;;18.95;77.03;95653.47;5101842;28;20672;-77
2021/08/20 08:31:27;;;;;;;10.13;5.30;;;;;;;19.00;76.66;95644.50;5113595;28;20044;-80
2021/08/20 08:33:53;;;;;;;7.85;5.03;;;;;;;19.07;77.05;95644.78;5092867;28;20474;-80
2021/08/20 08:36:19;;;;;;;8.68;5.10;;;;;;;19.08;77.29;95651.69;5116041;28;20055;-79
2021/08/20 08:38:45;;;;;;;8.85;4.75;;;;;;;19.11;77.22;95656.38;5094145;28;20587;-78
2021/08/20 08:41:11;;;;;;;9.30;5.18;;;;;;;19.23;77.38;95657.59;5089223;28;20048;-80
2021/08/20 08:43:36;;;;;;;8.80;4.80;;;;;;;19.49;74.60;95660.91;5103894;28;20060;-81
2021/08/20 08:46:04;;;;;;;10.52;5.38;;;;;;;19.47;73.96;95657.78;5110443;28;20055;-81
2021/08/20 08:48:31;;;;;;;8.98;5.40;;;;;;;19.60;74.97;95653.31;5104823;27;20410;-77
2021/08/20 08:51:00;;;;;;;7.53;4.70;;;;;;;19.63;74.94;95654.56;5089757;28;20055;-80
2021/08/20 08:53:25;;;;;;;9.95;5.07;;;;;;;19.80;72.76;95653.69;5110207;28;20063;-77
2021/08/20 08:55:52;;;;;;;14.75;5.30;;;;;;;19.67;73.00;95656.25;5115330;28;20039;-79
2021/08/20 08:58:17;;;;;;;13.95;5.63;;;;;;;19.71;72.75;95653.69;5112898;28;20044;-78
2021/08/20 09:00:43;;;;;;;10.27;5.60;;;;;;;19.58;73.15;95652.06;5094167;27;20501;-77
2021/08/20 09:03:25;;;;;;;11.18;5.38;;;;;;;19.70;72.17;95650.25;5109851;28;20035;-78
2021/08/20 09:05:50;;;;;;;7.63;4.97;;;;;;;20.00;70.06;95652.13;5110075;28;20128;-79
2021/08/20 09:08:21;;;;;;;10.15;4.97;;;;;;;20.17;71.88;95652.00;5107939;28;20036;-77
2021/08/20 09:10:55;;;;;;;9.00;4.75;;;;;;;20.21;70.04;95652.91;5105733;28;20035;-80
2021/08/20 09:13:22;;;;;;;9.10;4.93;;;;;;;20.40;70.91;95659.63;5111202;28;20043;-82
2021/08/20 09:16:05;;;;;;;11.65;5.80;;;;;;;20.05;72.86;95650.03;5111453;27;20047;-77
2021/08/20 09:18:31;;;;;;;8.82;5.38;;;;;;;20.14;73.57;95652.66;5106077;28;20036;-78
2021/08/20 09:20:57;;;;;;;10.95;5.20;;;;;;;20.31;72.60;95661.59;5105746;28;20050;-79
2021/08/20 09:23:25;;;;;;;10.13;5.60;;;;;;;20.19;71.65;95665.78;5111557;28;20635;-78
2021/08/20 09:25:53;;;;;;;11.45;5.45;;;;;;;20.30;72.85;95660.03;5113678;28;20055;-77
2021/08/20 09:28:25;;;;;;;9.98;5.68;;;;;;;20.28;72.34;95656.94;5104725;28;20511;-77
2021/08/20 09:30:54;;;;;;;10.63;5.43;;;;;;;20.34;71.67;95660.94;5095027;28;20067;-77
2021/08/20 09:33:22;;;;;;;10.75;5.38;;;;;;;20.59;70.83;95654.56;5109923;28;20043;-82
2021/08/20 09:36:04;;;;;;;8.55;5.35;;;;;;;20.43;71.18;95659.00;5115162;28;20496;-84
2021/08/20 09:38:32;;;;;;;12.38;5.75;;;;;;;20.26;71.32;95657.25;5106050;28;20039;-80
2021/08/20 09:41:01;;;;;;;9.60;5.47;;;;;;;20.22;71.37;95659.78;5110501;28;20148;-79
2021/08/20 09:43:32;;;;;;;11.35;5.60;;;;;;;20.42;72.10;95658.19;5104907;28;20039;-77
2021/08/20 09:46:07;;;;;;;10.20;5.85;;;;;;;20.40;69.74;95659.63;5111103;28;20039;-79
2021/08/20 09:48:46;;;;;;;9.57;5.20;;;;;;;20.69;69.33;95655.31;5085370;28;20085;-78
2021/08/20 09:51:43;;;;;;;9.13;5.03;;;;;;;20.60;68.39;95648.13;5086379;28;20512;-76
2021/08/20 09:54:14;;;;;;;8.23;5.22;;;;;;;20.62;67.89;95649.69;5104834;28;20069;-77
2021/08/20 09:56:41;;;;;;;9.55;4.95;;;;;;;20.54;67.93;95645.97;5108828;28;20047;-77
2021/08/20 09:59:09;;;;;;;9.20;4.57;;;;;;;20.49;66.24;95646.97;5110261;28;20059;-78
2021/08/20 10:01:37;;;;;;;8.45;4.85;;;;;;;20.84;66.18;95641.28;5106735;28;20043;-76
2021/08/20 10:04:06;;;;;;;8.20;4.80;;;;;;;21.08;64.98;95640.53;5099680;28;20036;-79
2021/08/20 10:06:35;;;;;;;7.15;4.40;;;;;;;21.31;62.24;95636.66;5116771;27;20038;-79
2021/08/20 10:09:08;;;;;;;6.97;4.05;;;;;;;21.42;62.19;95643.09;5115126;28;20440;-81
2021/08/20 10:11:36;;;;;;;7.30;4.07;;;;;;;21.53;60.08;95641.56;5099891;28;20044;-82
2021/08/20 10:14:03;;;;;;;7.07;4.10;;;;;;;21.78;59.28;95644.22;5109031;28;20040;-82
2021/08/20 10:16:31;;;;;;;5.80;3.58;;;;;;;21.73;58.03;95639.09;5084560;28;20044;-81
2021/08/20 10:19:00;;;;;;;6.47;3.08;;;;;;;21.43;54.17;95639.31;5099499;28;20039;-80
2021/08/20 10:21:27;;;;;;;4.30;2.58;;;;;;;21.47;52.30;95629.50;5098719;28;20515;-79
2021/08/20 10:23:53;;;;;;;4.15;2.60;;;;;;;21.55;51.93;95625.94;5117589;27;20059;-81
2021/08/20 10:26:20;;;;;;;4.53;2.70;;;;;;;22.04;48.79;95624.25;5109920;27;20109;-79
2021/08/20 10:28:47;;;;;;;6.93;3.15;;;;;;;22.27;49.31;95617.25;5104522;28;20051;-81
2021/08/20 10:31:14;;;;;;;4.88;2.90;;;;;;;22.68;53.22;95627.91;5105371;28;20050;-80
2021/08/20 10:33:40;;;;;;;4.72;2.92;;;;;;;23.35;52.32;95619.19;5086715;28;20039;-80
2021/08/20 10:36:06;;;;;;;5.93;3.33;;;;;;;23.85;50.74;95620.25;5082458;28;20043;-81
2021/08/20 10:38:48;;;;;;;5.35;3.25;;;;;;;23.77;51.18;95612.41;5105623;28;20539;-79
2021/08/20 10:41:18;;;;;;;6.63;3.55;;;;;;;24.43;51.14;95615.25;5103203;28;20044;-82
2021/08/20 10:43:57;;;;;;;7.90;3.35;;;;;;;24.57;50.22;95615.50;5080682;28;20078;-82
2021/08/20 10:46:31;;;;;;;5.22;3.20;;;;;;;25.14;52.95;95614.94;5092610;28;20038;-81
2021/08/20 10:49:12;;;;;;;7.10;3.65;;;;;;;25.20;49.50;95608.13;5099783;28;20159;-80
2021/08/20 10:51:53;;;;;;;5.63;3.28;;;;;;;25.85;47.20;95614.44;5074065;28;20493;-81
2021/08/20 10:54:31;;;;;;;4.38;3.00;;;;;;;25.18;47.69;95610.38;5081004;28;20637;-80
2021/08/20 10:56:57;;;;;;;6.53;3.55;;;;;;;25.13;45.03;95613.38;5090547;28;20039;-79
2021/08/20 10:59:38;;;;;;;6.53;3.13;;;;;;;25.46;47.02;95614.66;5090525;28;20088;-80
2021/08/20 11:02:19;;;;;;;4.78;3.25;;;;;;;25.16;45.32;95609.97;5076598;28;20086;-76
2021/08/20 11:04:59;;;;;;;6.10;3.40;;;;;;;24.68;48.21;95621.09;5082410;28;20697;-76
2021/08/20 11:07:37;;;;;;;8.50;3.10;;;;;;;24.14;46.72;95620.09;5108019;27;20062;-77
2021/08/20 11:10:08;;;;;;;5.93;3.20;;;;;;;25.24;48.69;95614.31;5105391;28;20066;-78
2021/08/20 11:12:42;;;;;;;6.22;3.15;;;;;;;25.80;45.31;95612.81;5106458;28;20063;-77
2021/08/20 11:15:20;;;;;;;5.43;3.17;;;;;;;26.22;45.14;95611.03;5115869;28;20046;-77
2021/08/20 11:17:47;;;;;;;5.28;3.42;;;;;;;25.59;42.99;95621.41;5085325;28;20047;-75
2021/08/20 11:20:23;;;;;;;5.45;3.50;;;;;;;25.62;43.85;95611.81;5105055;28;20043;-77
2021/08/20 11:23:13;;;;;;;5.47;3.58;;;;;;;24.97;46.53;95611.59;5104914;28;20039;-77
2021/08/20 11:25:40;;;;;;;5.18;3.47;;;;;;;24.30;46.92;95618.09;5096877;28;20067;-77
2021/08/20 11:28:26;;;;;;;5.20;3.03;;;;;;;24.71;44.37;95621.16;5107817;28;20044;-77
2021/08/20 11:30:54;;;;;;;6.03;3.30;;;;;;;25.06;42.62;95614.06;5105175;28;20036;-75
2021/08/20 11:33:23;;;;;;;4.72;3.00;;;;;;;25.54;41.98;95616.31;5105146;28;20055;-77